Landels-Hill Big Creek Reserve Entrance, California Weather observations

Data are for 10 minute period ending at time listed.
 Day   Time   Solar   Ave.   Ave.  Ave.  Vector  Max.   Baro.   Total    
  of    of     Rad.   Air    Rel.  Wind   Wind   Wind  Press.  Precip.   
Year   Day            Temp.  Hum.  Speed  Dir.   Gust                    
2014   (PST)  Kw/m2    F      %     mph   deg.    mph    mb.     in.     
-------------------------------------------------------------------------
 238   14:50   0.69   65.4    70    6.2   151     9.9   1011.9    0.00 
 238   15:00   0.66   65.3    70    6.0   142    14.0   1012.0    0.00 
 238   15:10   0.64   65.4    70    5.3   139    11.1   1012.0    0.00 
 238   15:20   0.61   65.5    69    5.8   148     9.7   1012.0    0.00 
 238   15:30   0.59   65.4    69    6.0   150    13.2   1012.0    0.00 
 238   15:40   0.56   66.1    67    6.6   166    12.3   1012.0    0.00 
 238   15:50   0.53   67.1    66    4.3   184     9.3   1011.9    0.00 
 238   16:00   0.50   67.9    64    4.9   183    12.2   1011.9    0.00 
 238   16:10   0.47   67.5    65    4.5   196    11.1   1011.8    0.00 
 238   16:20   0.44   67.9    64    3.1   191     9.3   1011.8    0.00 
 238   16:30   0.41   68.2    64    3.5   199     8.1   1011.7    0.00 
 238   16:40   0.37   66.8    66    6.0   176    11.0   1011.8    0.00 
 238   16:50   0.34   66.1    68    6.9   169    12.3   1011.8    0.00 
 238   17:00   0.31   65.3    70    5.2   159    12.3   1011.8    0.00 
 238   17:10   0.27   65.2    71    5.9   165    11.3   1011.8    0.00 
 238   17:20   0.23   65.8    70    5.1   170    10.7   1011.6    0.00 
 238   17:30   0.05   65.3    71    3.0   171     7.1   1011.5    0.00 
 238   17:40   0.04   64.8    72    4.1     4    10.0   1011.2    0.00 
 238   17:50   0.04   65.1    72    3.4    79     8.4   1010.9    0.00 
 238   18:00   0.03   64.8    74    3.8   126     9.2   1010.8    0.00 
 238   18:10   0.03   64.7    75    3.8    39     8.0   1010.9    0.00 
 238   18:20   0.02   64.3    76    4.0    32    10.4   1011.0    0.00 
 238   18:30   0.01   64.1    76    2.5    73     7.2   1010.9    0.00 
 238   18:40   0.01   64.0    76    2.7    29     9.4   1011.0    0.00 
 238   18:50   0.01   63.7    77    2.1   182     5.6   1011.1    0.00 
 238   19:00   0.00   63.4    77    1.3    30     5.0   1011.3    0.00 
 238   19:10   0.00   63.2    77    1.2    34     4.2   1011.4    0.00 
 238   19:20   0.00   62.2    78    1.1     2     2.7   1011.5    0.00 
 238   19:30   0.00   61.1    80    1.2    16     3.4   1011.6    0.00 
 238   19:40   0.00   60.5    81    0.8    53     2.5   1011.7    0.00 
 238   19:50   0.00   60.0    82    1.3    41     2.9   1011.8    0.00 
 238   20:00   0.00   60.0    82    1.4    20     3.6   1011.9    0.00 
 238   20:10   0.00   59.7    83    1.1    34     3.3   1012.0    0.00 
 238   20:20   0.00   59.4    83    1.6    32     4.5   1012.2    0.00 
 238   20:30   0.00   59.1    84    1.6    48     3.2   1012.2    0.00 
 238   20:40   0.00   58.9    84    1.4    44     3.7   1012.2    0.00 
 238   20:50   0.00   58.8    84    1.5    37     3.5   1012.2    0.00 
 238   21:00   0.00   58.7    84    1.6    43     3.8   1012.4    0.00 
 238   21:10   0.00   58.4    84    2.0    29     4.9   1012.5    0.00 
 238   21:20   0.00   58.1    84    2.2    43     3.9   1012.7    0.00 
 238   21:30   0.00   57.9    85    1.9    53     4.1   1012.7    0.00 
 238   21:40   0.00   57.7    85    2.3    27     5.6   1012.7    0.00 
 238   21:50   0.00   57.4    85    2.0    46     3.9   1012.6    0.00 
 238   22:00   0.00   57.3    85    2.0    43     5.0   1012.5    0.00 
 238   22:10   0.00   57.1    85    2.1    34     5.0   1012.4    0.00 
 238   22:20   0.00   56.9    85    2.2    55     3.9   1012.4    0.00 
 238   22:30   0.00   56.8    85    2.4    32     5.3   1012.5    0.00 
 238   22:40   0.00   56.7    85    2.5    37     5.4   1012.6    0.00 
 238   22:50   0.00   56.3    85    3.0    32     6.4   1012.6    0.00 
 238   23:00   0.00   56.2    85    3.0    54     6.1   1012.8    0.00 
 238   23:10   0.00   56.2    84    3.0    52     7.8   1012.9    0.00 
 238   23:20   0.00   56.1    84    3.8    45     7.2   1013.0    0.00 
 238   23:30   0.00   55.9    83    2.7    40     5.9   1013.0    0.00 
 238   23:40   0.00   55.6    84    2.0    24     5.6   1013.0    0.00 
 238   23:50   0.00   55.4    84    2.8    34     5.1   1013.0    0.00 
 239    0:00   0.00   55.3    84    2.9    37     6.4   1012.9    0.00 
 239    0:10   0.00   55.4    84    2.7    36     5.3   1013.0    0.00 
 239    0:20   0.00   55.5    82    2.9    28     6.2   1013.0    0.00 
 239    0:30   0.00   55.5    82    3.1    27     6.0   1013.1    0.00 
 239    0:40   0.00   55.4    82    3.3    25     7.1   1013.1    0.00 
 239    0:50   0.00   55.3    82    3.2    26     6.6   1013.1    0.00 
 239    1:00   0.00   55.3    82    2.9    40     6.4   1013.1    0.00 
 239    1:10   0.00   55.3    81    2.4    36     5.3   1013.0    0.00 
 239    1:20   0.00   55.1    81    2.1    35     5.9   1013.0    0.00 
 239    1:30   0.00   54.8    83    2.2    51     4.5   1013.0    0.00 
 239    1:40   0.00   54.7    83    2.6    45     5.6   1013.0    0.00 
 239    1:50   0.00   54.8    81    3.2    19     7.1   1013.0    0.00 
 239    2:00   0.00   54.7    81    3.0    34     6.9   1013.0    0.00 
 239    2:10   0.00   54.4    82    2.7    24     6.3   1013.0    0.00 
 239    2:20   0.00   54.4    81    2.7    25     5.7   1012.9    0.00 
 239    2:30   0.00   54.7    80    2.9    40     6.0   1012.9    0.00 
 239    2:40   0.00   54.8    79    2.7    25     7.0   1013.0    0.00 
 239    2:50   0.00   54.5    79    2.5    49     5.0   1012.9    0.00 
 239    3:00   0.00   54.2    80    3.0    32     5.6   1012.8    0.00 
 239    3:10   0.00   54.4    78    2.5    27     5.7   1012.7    0.00 
 239    3:20   0.00   54.5    78    2.9    39     5.8   1012.7    0.00 
 239    3:30   0.00   54.5    77    2.8    24     5.8   1012.6    0.00 
 239    3:40   0.00   54.4    77    2.4    35     5.9   1012.7    0.00 
 239    3:50   0.00   54.6    77    2.6    28     5.0   1012.8    0.00 
 239    4:00   0.00   54.5    77    2.6    37     5.6   1012.8    0.00 
 239    4:10   0.00   54.5    76    2.5    40     5.0   1012.8    0.00 
 239    4:20   0.00   54.7    75    1.8    23     4.2   1012.8    0.00 
 239    4:30   0.00   54.4    76    1.5    37     3.4   1012.9    0.00 
 239    4:40   0.00   53.9    78    1.9    32     4.3   1013.0    0.00 
 239    4:50   0.00   53.9    78    2.4    40     5.4   1013.1    0.00 
 239    5:00   0.00   54.3    76    2.5    25     5.4   1013.1    0.00 
 239    5:10   0.00   54.4    75    2.3    28     5.1   1013.3    0.00 
 239    5:20   0.00   54.3    74    1.9    48     4.0   1013.4    0.00 
 239    5:30   0.00   53.9    75    1.9    26     5.0   1013.5    0.00 
 239    5:40   0.00   53.8    75    2.7    34     7.7   1013.6    0.00 
 239    5:50   0.01   54.3    72    2.9    22     7.4   1013.8    0.00 
 239    6:00   0.01   54.2    72    3.1    23     7.2   1013.8    0.00 
 239    6:10   0.01   54.3    71    2.4    33     6.1   1013.8    0.00 
 239    6:20   0.01   54.5    70    2.3    34     5.5   1013.8    0.00 
 239    6:30   0.01   54.8    68    1.8    49     5.0   1014.0    0.00 
 239    6:40   0.01   55.0    68    2.1    36     4.7   1014.0    0.00 
 239    6:50   0.01   54.4    70    2.2    32     4.5   1014.0    0.00 
 239    7:00   0.01   54.7    70    2.3    29     5.6   1013.9    0.00 
 239    7:10   0.02   54.7    70    1.5     8     3.9   1013.9    0.00 
 239    7:20   0.03   54.4    72    1.7     6     3.5   1013.9    0.00 
 239    7:30   0.03   54.6    73    2.0     4     3.9   1013.9    0.00 
 239    7:40   0.03   54.8    74    1.9   355     2.7   1014.0    0.00 
 239    7:50   0.03   54.7    75    1.1   352     2.6   1014.1    0.00 
 239    8:00   0.03   54.4    78    0.8   354     1.5   1014.2    0.00 
 239    8:10   0.03   54.9    81    0.0    94     0.6   1014.2    0.00 
 239    8:20   0.03   57.9    81    0.1   188     1.2   1014.3    0.00 
 239    8:30   0.03   59.6    79    0.4    97     1.4   1014.4    0.00 
 239    8:40   0.03   60.4    78    0.9   150     2.2   1014.4    0.00 
 239    8:50   0.03   61.0    79    1.4   153     2.2   1014.4    0.00 
 239    9:00   0.04   61.3    80    1.5   146     2.6   1014.4    0.00 
 239    9:10   0.04   61.5    80    1.7   144     2.4   1014.4    0.00 
 239    9:20   0.50   61.9    80    2.2   152     3.2   1014.3    0.00 
 239    9:30   0.63   63.3    76    2.7   144     4.2   1014.3    0.00 
 239    9:40   0.66   64.2    75    2.9   158     4.3   1014.4    0.00 
 239    9:50   0.69   65.1    73    1.9   156     3.5   1014.8    0.00 
 239   10:00   0.71   66.7    70    1.8   232     4.2   1015.1    0.00 
 239   10:10   0.73   66.6    71    1.8   212     3.4   1015.3    0.00 
 239   10:20   0.75   66.0    72    2.5   250     5.6   1015.4    0.00 
 239   10:30   0.77   66.4    73    2.2   238     4.8   1015.5    0.00 
 239   10:40   0.79   66.4    73    2.8   240     6.3   1015.5    0.00 
 239   10:50   0.81   66.7    74    2.0   232     4.6   1015.4    0.00 
 239   11:00   0.82   66.5    74    2.9   246     6.1   1015.3    0.00 
 239   11:10   0.83   65.9    76    3.2   238     6.3   1015.3    0.00 
 239   11:20   0.84   66.0    76    3.5   248     6.6   1015.1    0.00 
 239   11:30   0.85   66.0    76    3.1   238     5.5   1015.0    0.00 
 239   11:40   0.86   66.8    75    2.4   234     4.8   1014.9    0.00 
 239   11:50   0.86   66.7    74    3.5   246     6.4   1014.9    0.00 
 239   12:00   0.87   66.3    75    3.6   255     5.8   1014.9    0.00 
 239   12:10   0.87   67.2    72    3.0   252     6.4   1014.8    0.00 
 239   12:20   0.88   67.4    72    3.2   249     6.5   1014.8    0.00 
 239   12:30   0.88   68.4    70    2.1   235     4.4   1014.7    0.00 
 239   12:40   0.87   70.4    68    1.9   201     5.2   1014.8    0.00 
 239   12:50   0.87   70.4    68    1.2   222     3.4   1014.8    0.00 
 239   13:00   0.86   72.1    66    1.4   210     3.9   1014.8    0.00 
 239   13:10   0.86   71.4    67    1.8   199     4.7   1014.8    0.00 
 239   13:20   0.85   69.0    73    2.7   199     4.9   1014.8    0.00 
 239   13:30   0.84   68.3    76    2.6   203     4.7   1014.7    0.00 
 239   13:40   0.84   68.1    76    2.5   207     4.5   1014.7    0.00 
 239   13:50   0.83   69.0    75    2.2   199     4.2   1014.6    0.00 
 239   14:00   0.80   70.4    72    1.2   204     3.7   1014.4    0.00 
 239   14:10   0.78   69.9    72    2.1   180     6.1   1014.3    0.00 
 239   14:20   0.76   69.7    73    1.5   195     4.7   1014.3    0.00 
 239   14:30   0.74   70.1    72    1.7   223     4.5   1014.3    0.00 
 239   14:40   0.72   69.7    73    2.1   200     4.6   1014.3    0.00 

Return to Big Creek Reserve Entrance graphs page.


Western Regional Climate Center,wrcc@dri.edu